Thunder radar more information blitzortung!


Rain radar more information rain snow radar


   Es ist keine erhoehte Aufmerksamkeit aufgrund des Wetters notwendig.   -   Es gibt keine Warnungen :-).

METAR-Meldungen aus der Umgebung

Warning: A non-numeric value encountered in /mnt/web301/a1/70/5400070/htdocs/weather28/metar/metarDisplay.php on line 166 Warning: A non-numeric value encountered in /mnt/web301/a1/70/5400070/htdocs/weather28/metar/metarDisplay.php on line 166
   
EBBR - Brussels International Airport, Belgium
Entfernung von der Station bis: W 14 km
Aktualisierung: 26-05-2019 10:50
Klar  
Klar  
   Wind: SW 16.7 km/h
Wind: SW 16.7 km/h
Temperatur: 16°C
Taupunkt: 12°C
Luftfeuchte: 77%
Luftdruck: 1015 hPa
Sichtbarkeit: More than 10 km
Bewölkung: Klar
EBBR 260850Z 22009KT 190V250 CAVOK 16/12 Q1015 NOSIG
EBBE - Beauvechain (Bevekom), Belgium
Entfernung von der Station bis: SSO 17 km
Aktualisierung: 26-05-2019 10:55
Stark bewölkt  
Stark bewölkt  
   Wind: WSW 20.4 km/h
Wind: WSW 20.4 km/h
Temperatur: 16°C
Taupunkt: 13°C
Luftfeuchte: 83%
Luftdruck: 1016 hPa
Bewölkt: Stark bewölkt
Sichtbarkeit: More than 10 km
Bewölkung: leicht bewölkt 1400 ft,
Stark bewölkt 7500 ft
EBBE 260855Z AUTO 24011KT 9999 FEW014/// BKN075/// 16/13 Q1016 BLU
EBDT - Schaffen, Belgium
Entfernung von der Station bis: ONO 29 km
Aktualisierung: 26-05-2019 10:55
Stark bewölkt  
Stark bewölkt  
   Wind: SW 11.1 km/h
Wind: SW 11.1 km/h
Temperatur: 17°C
Taupunkt: 12°C
Luftfeuchte: 73%
Luftdruck: 1015 hPa
Bewölkt: Stark bewölkt
Sichtbarkeit: More than 10 km
Bewölkung: Stark bewölkt 6500 ft
EBDT 260855Z AUTO 22006KT 9999 BKN065/// 17/12 Q1015 BLU
EBAW - Antwerp/Deurne, Belgium
Entfernung von der Station bis: NNW 38 km
Aktualisierung: 26-05-2019 10:50
leicht bewölkt  
leicht bewölkt  
   Wind: SW 13 km/h
Wind: SW 13 km/h
Temperatur: 16°C
Taupunkt: 12°C
Luftfeuchte: 77%
Luftdruck: 1015 hPa
Bewölkt: leicht bewölkt
Sichtbarkeit: More than 10 km
Bewölkung: leicht bewölkt 1400 ft
EBAW 260850Z 23007KT 9999 FEW014 16/12 Q1015 NOSIG
EBCI - Charleroi/Gosselies, Belgium
Entfernung von der Station bis: SSW 51 km
Aktualisierung: 26-05-2019 10:50
leicht bewölkt  
leicht bewölkt  
   Wind: SW 20.4 km/h
Wind: SW 20.4 km/h
Temperatur: 17°C
Taupunkt: 12°C
Luftfeuchte: 73%
Luftdruck: 1016 hPa
Bewölkt: leicht bewölkt
Sichtbarkeit: More than 10 km
Bewölkung: leicht bewölkt 1900 ft
EBCI 260850Z 23011KT 200V260 9999 FEW019 17/12 Q1016 NOSIG
EBLG - Bierset/Liege, Belgium
Entfernung von der Station bis: OSO 60 km
Aktualisierung: 26-05-2019 10:50
Klar  
Klar  
   Wind: SSW 20.4 km/h
Wind: SSW 20.4 km/h
Temperatur: 17°C
Taupunkt: 10°C
Luftfeuchte: 64%
Luftdruck: 1016 hPa
Sichtbarkeit: More than 10 km
Bewölkung: Klar
EBLG 260850Z 21011KT 180V240 CAVOK 17/10 Q1016 NOSIG

Script entwickelt von  Saratoga-weather.org Angepasst für das Template von  Weerstation Leuven